LFBL/LIG METAR and TAF weather

Enter ICAO airport designator
Station Type Date Time Source
LFBL METAR 2020/01/27 11:00 UTC NOAA

LFBL 271100Z AUTO 19011KT 9999 -RA SCT030 SCT035 BKN042 06/06 Q1015 TEMPO 18015G25KT 3000 -RA BKN005


Station Type Date Time Source
LFBL Decoded METAR 2020/01/27 11:00 UTC NOAA

Limoges, France (LFBL) 45-52N 001-11E 402M
Jan 27, 2020 - 06:00 AM EST / 2020.01.27 1100 UTC
Wind: from the S (190 degrees) at 13 MPH (11 KT):0
Visibility: greater than 7 mile(s):0
Sky conditions: mostly cloudy
Weather: light rain
Temperature: 42 F (6 C)
Dew Point: 42 F (6 C)
Relative Humidity: 100%
Pressure (altimeter): 29.97 in. Hg (1015 hPa)
ob: LFBL 271100Z AUTO 19011KT 9999 -RA SCT030 SCT035 BKN042 06/06 Q1015 TEMPO 18015G25KT 3000 -RA BKN005
cycle: 11

Station Type Date Time Source
LFBL TAF 2020/01/27 06:21 UTC NOAA

TAF TAF LFBL 270500Z 2706/2806 18010KT 9999 OVC006
TEMPO 2706/2708 4000 -RA OVC003
BECMG 2708/2710 BKN030
TEMPO 2710/2802 18015G25KT 3000 -RA BKN005 PROB40
TEMPO 2715/2802 20020G35KT 2000 RA BKN004 SCT020TCU
TEMPO 2802/2806 26020G35KT SHRA SCT020TCU

Example: see airport list